createdAt,value
2018-08-04T00:07:08.329Z,77.4
2018-08-04T00:17:23.138Z,76.8
2018-08-04T00:27:37.455Z,76.7
2018-08-04T00:37:52.209Z,77.2
2018-08-04T00:48:05.960Z,77.6
2018-08-04T00:58:20.588Z,79
2018-08-04T01:08:35.396Z,80.5
2018-08-04T01:18:50.097Z,81.3
2018-08-04T01:29:05.453Z,82
2018-08-04T01:39:19.954Z,82.4
2018-08-04T01:49:34.742Z,83.1
2018-08-04T01:59:50.294Z,82.4
2018-08-04T02:10:05.733Z,81.4
2018-08-04T02:20:20.646Z,80.9
2018-08-04T02:30:33.887Z,80.7
2018-08-04T02:40:49.495Z,81.5
2018-08-04T02:51:04.566Z,80.9
2018-08-04T03:01:18.343Z,81.5
2018-08-04T03:11:33.945Z,81.5
2018-08-04T03:21:48.055Z,80.3
2018-08-04T03:32:02.555Z,79.5
2018-08-04T03:42:17.777Z,76
2018-08-04T03:52:33.129Z,76.4
2018-08-04T04:02:47.528Z,76.1
2018-08-04T04:13:02.759Z,75.3
2018-08-04T04:23:17.958Z,73.3
2018-08-04T04:33:32.758Z,79.4
2018-08-04T04:43:48.231Z,75.6
2018-08-04T04:54:02.979Z,77.8
2018-08-04T05:04:17.166Z,77.4
2018-08-04T05:14:32.065Z,76.8
2018-08-04T05:24:47.467Z,76.1
2018-08-04T05:35:03.056Z,77.6
2018-08-04T05:45:17.865Z,76.7
2018-08-04T05:55:33.225Z,77.5
2018-08-04T06:05:48.719Z,76.3
2018-08-04T06:16:02.561Z,78.2
2018-08-04T06:26:16.489Z,82
2018-08-04T06:36:31.973Z,86.5
2018-08-04T06:46:46.327Z,88.2
2018-08-04T06:57:00.710Z,86.7
2018-08-04T07:07:15.047Z,88.1
2018-08-04T07:17:30.427Z,89
2018-08-04T07:27:45.165Z,88.8
2018-08-04T07:38:00.751Z,87
2018-08-04T07:48:16.477Z,86.6
2018-08-04T07:58:32.040Z,85.1
2018-08-04T08:08:46.441Z,79.3
2018-08-04T08:19:02.044Z,77.8
2018-08-04T08:29:16.428Z,75
2018-08-04T08:39:30.816Z,72.1
2018-08-04T08:49:46.099Z,70.6
2018-08-04T09:00:00.031Z,68.9
2018-08-04T09:10:14.653Z,67.7
2018-08-04T09:20:29.266Z,65.6
2018-08-04T09:30:43.416Z,64.8
2018-08-04T09:40:58.383Z,63.3
2018-08-04T09:51:13.433Z,62.4
2018-08-04T10:01:28.742Z,61
2018-08-04T10:11:44.628Z,61.5
2018-08-04T10:21:59.690Z,60.4
2018-08-04T10:32:13.608Z,58.2
2018-08-04T10:42:28.759Z,58.2
2018-08-04T10:52:44.710Z,57
2018-08-04T11:02:58.656Z,57
2018-08-04T11:13:14.305Z,56
2018-08-04T11:23:28.418Z,56.1
2018-08-04T11:33:42.781Z,55.7
2018-08-04T11:43:58.449Z,55.5
2018-08-04T11:54:13.695Z,53.9
2018-08-04T12:04:28.658Z,53.1
2018-08-04T12:14:44.448Z,54.2
2018-08-04T12:24:58.812Z,53.8
2018-08-04T12:35:14.905Z,52.2
2018-08-04T12:45:29.782Z,52.6
2018-08-04T12:55:45.620Z,51.9
2018-08-04T13:05:59.857Z,52.3
2018-08-04T13:16:15.204Z,52.6
2018-08-04T13:26:30.597Z,51.2
2018-08-04T13:36:45.348Z,50.8
2018-08-04T13:47:00.566Z,51.9
2018-08-04T13:57:14.938Z,49.5
2018-08-04T14:07:29.136Z,50.2
2018-08-04T14:17:43.722Z,50.2
2018-08-04T14:27:59.082Z,49.1
2018-08-04T14:38:14.844Z,49.1
2018-08-04T14:48:29.091Z,50.1
2018-08-04T14:58:44.828Z,49.5
2018-08-04T15:08:59.743Z,50.4
2018-08-04T15:19:14.299Z,50.9
2018-08-04T15:29:28.239Z,52.1
2018-08-04T15:39:43.367Z,52.7
2018-08-04T15:49:58.262Z,52.1
2018-08-04T16:00:13.082Z,52.7
2018-08-04T16:10:27.145Z,53.5
2018-08-04T16:20:41.341Z,54.4
2018-08-04T16:30:57.208Z,54.8
2018-08-04T16:41:11.548Z,56.7
2018-08-04T16:51:26.485Z,58.9
2018-08-04T17:01:40.269Z,60.7
2018-08-04T17:11:55.987Z,62.3
2018-08-04T17:22:10.889Z,61.7
2018-08-04T17:32:25.798Z,62.7
2018-08-04T17:42:41.826Z,64.5
2018-08-04T17:52:56.727Z,65
2018-08-04T18:03:12.113Z,67
2018-08-04T18:13:26.352Z,69.9
2018-08-04T18:23:41.005Z,72.2
2018-08-04T18:33:56.475Z,73.6
2018-08-04T18:44:11.720Z,74.7
2018-08-04T18:54:26.963Z,76.3
2018-08-04T19:04:42.320Z,77.7
2018-08-04T19:14:57.133Z,78.8
2018-08-04T19:25:11.731Z,79
2018-08-04T19:35:27.483Z,79.3
2018-08-04T19:45:43.242Z,79.2
2018-08-04T19:55:56.983Z,79.5
2018-08-04T20:06:11.635Z,78.9
2018-08-04T20:16:27.023Z,78.3
2018-08-04T20:26:41.703Z,79.2
2018-08-04T20:36:56.012Z,78.7
2018-08-04T20:47:11.440Z,75.4
2018-08-04T20:57:26.660Z,72.3
2018-08-04T21:07:40.994Z,67.7
2018-08-04T21:17:55.859Z,64
2018-08-04T21:28:10.459Z,61.4
2018-08-04T21:38:25.482Z,61.1
2018-08-04T21:48:39.485Z,61.2
2018-08-04T21:58:53.991Z,59.7
2018-08-04T22:09:08.975Z,57.6
2018-08-04T22:19:24.182Z,55.9
2018-08-04T22:29:38.916Z,53.2
2018-08-04T22:39:54.169Z,50.1
2018-08-04T22:50:08.801Z,48.3
2018-08-04T23:00:24.485Z,46.2
2018-08-04T23:10:39.093Z,37.6
2018-08-04T23:20:53.615Z,32.8
2018-08-04T23:31:08.784Z,32.7
2018-08-04T23:41:23.585Z,32.1
2018-08-04T23:51:38.675Z,33.2
